Aviation Digital Data Service (ADDS)

Output produced by METARs form (0049 UTC 21 July 2017)
found at http://aviationweather.gov/adds/metars/
 
KHPN 210011Z 2100/2124 30008KT P6SM SCT060 SCT250 
     TEMPO 2101/2102 28015G27KT 4SM SHRA SCT025 BKN035 
     FM210200 32005KT P6SM FEW060 AMD NOT SKED